Timpas, Colorado
Current Conditions -  °F | °C
As of 12:53 PM on Friday 24 Oct 2014 (Local Time) from KLHX Reporting Station
Clear Clear  
Wind Chill: 83°   Ceiling: Unl
Heat Index: 83°   Visibility: 10mi
Dew Point: 29°   Wind: 7mph
Humidity: 14%   Direction: 270°W
Pressure: 30.12"   Gusts: NA
Location:  37.8368°N, 103.544°W
Report Text: KLHX 241853Z AUTO 27006KT 10SM CLR 28/M02 A3012 RMK AO2 SLP154 T02831017
Loading
Personal Weather Stations






























Interactive Weather Map
Tropical Storm Tracking
New forecast layout! Learn more

10-Day Weather Forecast

Advertisements
Track Severe Weather on mobile